sensor_id;sensor_type;location;lat;lon;timestamp;P1;durP1;ratioP1;P2;durP2;ratioP2
6983;SDS011;3532;51.118;7.210;2022-10-16T00:01:24;3.93;;;2.73;;
6983;SDS011;3532;51.118;7.210;2022-10-16T00:03:52;5.20;;;2.70;;
6983;SDS011;3532;51.118;7.210;2022-10-16T00:06:18;6.43;;;2.80;;
6983;SDS011;3532;51.118;7.210;2022-10-16T00:08:45;6.63;;;2.83;;
6983;SDS011;3532;51.118;7.210;2022-10-16T00:11:15;2.97;;;2.77;;
6983;SDS011;3532;51.118;7.210;2022-10-16T00:13:42;2.70;;;2.47;;
6983;SDS011;3532;51.118;7.210;2022-10-16T00:16:08;2.67;;;2.47;;
6983;SDS011;3532;51.118;7.210;2022-10-16T00:18:34;6.03;;;3.13;;
6983;SDS011;3532;51.118;7.210;2022-10-16T00:21:04;2.87;;;2.67;;
6983;SDS011;3532;51.118;7.210;2022-10-16T00:23:31;3.97;;;2.63;;
6983;SDS011;3532;51.118;7.210;2022-10-16T00:25:57;2.90;;;2.60;;
6983;SDS011;3532;51.118;7.210;2022-10-16T00:28:24;6.90;;;3.10;;
6983;SDS011;3532;51.118;7.210;2022-10-16T00:30:50;3.63;;;2.47;;
6983;SDS011;3532;51.118;7.210;2022-10-16T00:33:15;3.00;;;2.67;;
6983;SDS011;3532;51.118;7.210;2022-10-16T00:35:41;3.83;;;3.37;;
6983;SDS011;3532;51.118;7.210;2022-10-16T00:38:06;5.73;;;3.10;;
6983;SDS011;3532;51.118;7.210;2022-10-16T00:40:31;4.70;;;2.90;;
6983;SDS011;3532;51.118;7.210;2022-10-16T00:42:57;3.03;;;2.53;;
6983;SDS011;3532;51.118;7.210;2022-10-16T00:45:22;3.00;;;2.47;;
6983;SDS011;3532;51.118;7.210;2022-10-16T00:47:47;3.00;;;2.70;;
6983;SDS011;3532;51.118;7.210;2022-10-16T00:50:18;4.77;;;2.93;;
6983;SDS011;3532;51.118;7.210;2022-10-16T00:52:49;2.70;;;2.50;;
6983;SDS011;3532;51.118;7.210;2022-10-16T00:55:15;3.03;;;2.70;;
6983;SDS011;3532;51.118;7.210;2022-10-16T00:57:41;4.53;;;2.43;;
6983;SDS011;3532;51.118;7.210;2022-10-16T01:00:08;3.20;;;2.50;;
6983;SDS011;3532;51.118;7.210;2022-10-16T01:02:34;4.57;;;2.53;;
6983;SDS011;3532;51.118;7.210;2022-10-16T01:05:00;8.40;;;3.17;;
6983;SDS011;3532;51.118;7.210;2022-10-16T01:07:36;3.40;;;2.67;;
6983;SDS011;3532;51.118;7.210;2022-10-16T01:15:25;3.10;;;2.63;;
6983;SDS011;3532;51.118;7.210;2022-10-16T01:20:40;2.97;;;2.73;;
6983;SDS011;3532;51.118;7.210;2022-10-16T01:23:15;5.00;;;2.67;;
6983;SDS011;3532;51.118;7.210;2022-10-16T01:28:21;2.83;;;2.50;;
6983;SDS011;3532;51.118;7.210;2022-10-16T01:30:49;5.20;;;2.70;;
6983;SDS011;3532;51.118;7.210;2022-10-16T01:33:18;2.77;;;2.57;;
6983;SDS011;3532;51.118;7.210;2022-10-16T01:35:46;3.07;;;2.50;;
6983;SDS011;3532;51.118;7.210;2022-10-16T01:38:21;4.20;;;2.93;;
6983;SDS011;3532;51.118;7.210;2022-10-16T01:40:52;2.80;;;2.60;;
6983;SDS011;3532;51.118;7.210;2022-10-16T01:43:26;3.20;;;2.90;;
6983;SDS011;3532;51.118;7.210;2022-10-16T01:45:54;3.20;;;2.83;;
6983;SDS011;3532;51.118;7.210;2022-10-16T01:48:20;6.07;;;2.70;;
6983;SDS011;3532;51.118;7.210;2022-10-16T01:50:58;4.17;;;2.80;;
6983;SDS011;3532;51.118;7.210;2022-10-16T01:53:26;4.77;;;3.47;;
6983;SDS011;3532;51.118;7.210;2022-10-16T01:55:52;3.53;;;2.80;;
6983;SDS011;3532;51.118;7.210;2022-10-16T01:58:17;3.60;;;2.87;;
6983;SDS011;3532;51.118;7.210;2022-10-16T02:00:43;3.37;;;2.50;;
6983;SDS011;3532;51.118;7.210;2022-10-16T02:03:10;4.00;;;2.70;;
6983;SDS011;3532;51.118;7.210;2022-10-16T02:05:44;5.33;;;2.90;;
6983;SDS011;3532;51.118;7.210;2022-10-16T02:08:11;2.83;;;2.60;;
6983;SDS011;3532;51.118;7.210;2022-10-16T02:10:37;3.17;;;2.87;;
6983;SDS011;3532;51.118;7.210;2022-10-16T02:15:30;3.27;;;2.93;;
6983;SDS011;3532;51.118;7.210;2022-10-16T02:17:56;3.63;;;2.97;;
6983;SDS011;3532;51.118;7.210;2022-10-16T02:20:24;6.03;;;2.60;;
6983;SDS011;3532;51.118;7.210;2022-10-16T02:22:51;3.43;;;3.00;;
6983;SDS011;3532;51.118;7.210;2022-10-16T02:25:34;4.30;;;3.20;;
6983;SDS011;3532;51.118;7.210;2022-10-16T02:28:16;4.13;;;2.83;;
6983;SDS011;3532;51.118;7.210;2022-10-16T02:30:56;3.83;;;3.40;;
6983;SDS011;3532;51.118;7.210;2022-10-16T02:33:24;3.00;;;2.80;;
6983;SDS011;3532;51.118;7.210;2022-10-16T02:35:50;2.73;;;2.40;;
6983;SDS011;3532;51.118;7.210;2022-10-16T02:38:16;4.17;;;2.90;;
6983;SDS011;3532;51.118;7.210;2022-10-16T02:40:42;2.70;;;2.50;;
6983;SDS011;3532;51.118;7.210;2022-10-16T02:43:07;3.80;;;2.30;;
6983;SDS011;3532;51.118;7.210;2022-10-16T02:45:33;2.50;;;2.30;;
6983;SDS011;3532;51.118;7.210;2022-10-16T02:47:59;2.60;;;2.27;;
6983;SDS011;3532;51.118;7.210;2022-10-16T02:50:24;2.50;;;2.30;;
6983;SDS011;3532;51.118;7.210;2022-10-16T02:52:50;3.23;;;2.33;;
6983;SDS011;3532;51.118;7.210;2022-10-16T02:55:15;3.50;;;2.30;;
6983;SDS011;3532;51.118;7.210;2022-10-16T02:57:40;2.53;;;2.27;;
6983;SDS011;3532;51.118;7.210;2022-10-16T03:00:07;2.20;;;2.00;;
6983;SDS011;3532;51.118;7.210;2022-10-16T03:02:34;3.53;;;2.30;;
6983;SDS011;3532;51.118;7.210;2022-10-16T03:04:59;2.67;;;2.23;;
6983;SDS011;3532;51.118;7.210;2022-10-16T03:07:24;3.53;;;2.00;;
6983;SDS011;3532;51.118;7.210;2022-10-16T03:09:49;4.53;;;2.17;;
6983;SDS011;3532;51.118;7.210;2022-10-16T03:12:15;2.30;;;2.00;;
6983;SDS011;3532;51.118;7.210;2022-10-16T03:14:40;2.33;;;2.13;;
6983;SDS011;3532;51.118;7.210;2022-10-16T03:17:05;2.90;;;2.50;;
6983;SDS011;3532;51.118;7.210;2022-10-16T03:19:31;2.13;;;2.00;;
6983;SDS011;3532;51.118;7.210;2022-10-16T03:21:56;2.53;;;2.33;;
6983;SDS011;3532;51.118;7.210;2022-10-16T03:24:22;2.50;;;2.30;;
6983;SDS011;3532;51.118;7.210;2022-10-16T03:26:47;2.07;;;1.93;;
6983;SDS011;3532;51.118;7.210;2022-10-16T03:29:12;2.90;;;2.00;;
6983;SDS011;3532;51.118;7.210;2022-10-16T03:31:38;3.07;;;2.20;;
6983;SDS011;3532;51.118;7.210;2022-10-16T03:34:03;3.10;;;2.07;;
6983;SDS011;3532;51.118;7.210;2022-10-16T03:36:28;1.80;;;1.70;;
6983;SDS011;3532;51.118;7.210;2022-10-16T03:38:54;2.20;;;2.10;;
6983;SDS011;3532;51.118;7.210;2022-10-16T03:41:19;2.10;;;2.00;;
6983;SDS011;3532;51.118;7.210;2022-10-16T03:43:45;3.63;;;1.87;;
6983;SDS011;3532;51.118;7.210;2022-10-16T03:46:10;3.17;;;2.13;;
6983;SDS011;3532;51.118;7.210;2022-10-16T03:48:35;2.53;;;2.07;;
6983;SDS011;3532;51.118;7.210;2022-10-16T03:51:01;2.20;;;1.80;;
6983;SDS011;3532;51.118;7.210;2022-10-16T03:53:27;3.47;;;1.90;;
6983;SDS011;3532;51.118;7.210;2022-10-16T03:55:52;2.43;;;2.10;;
6983;SDS011;3532;51.118;7.210;2022-10-16T03:58:17;2.27;;;2.13;;
6983;SDS011;3532;51.118;7.210;2022-10-16T04:00:44;2.10;;;2.00;;
6983;SDS011;3532;51.118;7.210;2022-10-16T04:03:11;2.10;;;1.90;;
6983;SDS011;3532;51.118;7.210;2022-10-16T04:05:36;3.77;;;1.93;;
6983;SDS011;3532;51.118;7.210;2022-10-16T04:08:02;2.70;;;2.33;;
6983;SDS011;3532;51.118;7.210;2022-10-16T04:10:27;2.60;;;1.93;;
6983;SDS011;3532;51.118;7.210;2022-10-16T04:12:53;2.20;;;2.00;;
6983;SDS011;3532;51.118;7.210;2022-10-16T04:15:21;5.27;;;2.53;;
6983;SDS011;3532;51.118;7.210;2022-10-16T04:17:49;5.20;;;2.00;;
6983;SDS011;3532;51.118;7.210;2022-10-16T04:20:15;1.97;;;1.80;;
6983;SDS011;3532;51.118;7.210;2022-10-16T04:22:40;3.60;;;2.20;;
6983;SDS011;3532;51.118;7.210;2022-10-16T04:25:06;3.93;;;2.30;;
6983;SDS011;3532;51.118;7.210;2022-10-16T04:27:31;3.50;;;2.00;;
6983;SDS011;3532;51.118;7.210;2022-10-16T04:29:57;2.30;;;2.10;;
6983;SDS011;3532;51.118;7.210;2022-10-16T04:32:23;4.43;;;1.90;;
6983;SDS011;3532;51.118;7.210;2022-10-16T04:34:48;2.23;;;2.03;;
6983;SDS011;3532;51.118;7.210;2022-10-16T04:37:14;2.73;;;2.10;;
6983;SDS011;3532;51.118;7.210;2022-10-16T04:39:39;3.50;;;2.30;;
6983;SDS011;3532;51.118;7.210;2022-10-16T04:42:04;3.50;;;2.00;;
6983;SDS011;3532;51.118;7.210;2022-10-16T04:44:30;2.90;;;2.00;;
6983;SDS011;3532;51.118;7.210;2022-10-16T04:46:55;2.00;;;1.80;;
6983;SDS011;3532;51.118;7.210;2022-10-16T04:49:20;3.07;;;2.00;;
6983;SDS011;3532;51.118;7.210;2022-10-16T04:51:45;2.00;;;1.90;;
6983;SDS011;3532;51.118;7.210;2022-10-16T04:54:11;2.93;;;1.80;;
6983;SDS011;3532;51.118;7.210;2022-10-16T04:56:36;1.93;;;1.80;;
6983;SDS011;3532;51.118;7.210;2022-10-16T04:59:08;2.13;;;1.93;;
6983;SDS011;3532;51.118;7.210;2022-10-16T05:01:34;4.07;;;2.40;;
6983;SDS011;3532;51.118;7.210;2022-10-16T05:03:59;3.60;;;2.13;;
6983;SDS011;3532;51.118;7.210;2022-10-16T05:06:24;2.67;;;2.47;;
6983;SDS011;3532;51.118;7.210;2022-10-16T05:08:50;2.37;;;2.17;;
6983;SDS011;3532;51.118;7.210;2022-10-16T05:11:15;3.90;;;2.03;;
6983;SDS011;3532;51.118;7.210;2022-10-16T05:13:41;1.90;;;1.80;;
6983;SDS011;3532;51.118;7.210;2022-10-16T05:16:06;3.10;;;1.80;;
6983;SDS011;3532;51.118;7.210;2022-10-16T05:18:31;2.77;;;1.90;;
6983;SDS011;3532;51.118;7.210;2022-10-16T05:20:56;2.07;;;1.97;;
6983;SDS011;3532;51.118;7.210;2022-10-16T05:23:22;2.43;;;2.27;;
6983;SDS011;3532;51.118;7.210;2022-10-16T05:25:54;2.27;;;1.93;;
6983;SDS011;3532;51.118;7.210;2022-10-16T05:28:22;3.10;;;1.83;;
6983;SDS011;3532;51.118;7.210;2022-10-16T05:30:48;3.03;;;1.97;;
6983;SDS011;3532;51.118;7.210;2022-10-16T05:33:13;3.60;;;2.07;;
6983;SDS011;3532;51.118;7.210;2022-10-16T05:35:39;2.20;;;2.00;;
6983;SDS011;3532;51.118;7.210;2022-10-16T05:38:04;2.47;;;1.80;;
6983;SDS011;3532;51.118;7.210;2022-10-16T05:40:29;3.07;;;2.10;;
6983;SDS011;3532;51.118;7.210;2022-10-16T05:42:55;4.00;;;2.23;;
6983;SDS011;3532;51.118;7.210;2022-10-16T05:45:20;2.73;;;2.30;;
6983;SDS011;3532;51.118;7.210;2022-10-16T05:47:46;3.30;;;2.17;;
6983;SDS011;3532;51.118;7.210;2022-10-16T05:50:11;3.03;;;2.13;;
6983;SDS011;3532;51.118;7.210;2022-10-16T05:52:37;4.17;;;2.17;;
6983;SDS011;3532;51.118;7.210;2022-10-16T05:55:02;2.50;;;2.30;;
6983;SDS011;3532;51.118;7.210;2022-10-16T05:57:28;2.20;;;2.00;;
6983;SDS011;3532;51.118;7.210;2022-10-16T05:59:53;2.20;;;2.00;;
6983;SDS011;3532;51.118;7.210;2022-10-16T06:02:19;3.67;;;2.57;;
6983;SDS011;3532;51.118;7.210;2022-10-16T06:04:44;3.60;;;2.43;;
6983;SDS011;3532;51.118;7.210;2022-10-16T06:07:09;2.30;;;2.10;;
6983;SDS011;3532;51.118;7.210;2022-10-16T06:09:34;1.97;;;1.73;;
6983;SDS011;3532;51.118;7.210;2022-10-16T06:12:00;2.13;;;1.93;;
6983;SDS011;3532;51.118;7.210;2022-10-16T06:14:25;4.53;;;2.10;;
6983;SDS011;3532;51.118;7.210;2022-10-16T06:16:50;3.17;;;2.23;;
6983;SDS011;3532;51.118;7.210;2022-10-16T06:19:16;2.43;;;2.23;;
6983;SDS011;3532;51.118;7.210;2022-10-16T06:21:42;2.47;;;2.27;;
6983;SDS011;3532;51.118;7.210;2022-10-16T06:24:08;3.03;;;2.20;;
6983;SDS011;3532;51.118;7.210;2022-10-16T06:26:33;2.70;;;2.50;;
6983;SDS011;3532;51.118;7.210;2022-10-16T06:28:59;2.90;;;2.33;;
6983;SDS011;3532;51.118;7.210;2022-10-16T06:31:24;3.07;;;2.20;;
6983;SDS011;3532;51.118;7.210;2022-10-16T06:33:57;3.10;;;2.33;;
6983;SDS011;3532;51.118;7.210;2022-10-16T06:36:23;2.93;;;1.90;;
6983;SDS011;3532;51.118;7.210;2022-10-16T06:38:49;2.83;;;2.43;;
6983;SDS011;3532;51.118;7.210;2022-10-16T06:41:15;2.73;;;2.00;;
6983;SDS011;3532;51.118;7.210;2022-10-16T06:43:42;2.70;;;2.47;;
6983;SDS011;3532;51.118;7.210;2022-10-16T06:46:09;4.73;;;2.40;;
6983;SDS011;3532;51.118;7.210;2022-10-16T06:48:35;2.57;;;2.37;;
6983;SDS011;3532;51.118;7.210;2022-10-16T06:53:36;5.43;;;2.60;;
6983;SDS011;3532;51.118;7.210;2022-10-16T06:56:13;2.43;;;2.23;;
6983;SDS011;3532;51.118;7.210;2022-10-16T06:58:40;2.30;;;2.10;;
6983;SDS011;3532;51.118;7.210;2022-10-16T07:01:06;3.00;;;2.70;;
6983;SDS011;3532;51.118;7.210;2022-10-16T07:03:32;4.30;;;2.70;;
6983;SDS011;3532;51.118;7.210;2022-10-16T07:06:02;4.70;;;2.17;;
6983;SDS011;3532;51.118;7.210;2022-10-16T07:08:30;3.07;;;2.17;;
6983;SDS011;3532;51.118;7.210;2022-10-16T07:11:04;2.57;;;2.33;;
6983;SDS011;3532;51.118;7.210;2022-10-16T07:13:33;2.20;;;2.10;;
6983;SDS011;3532;51.118;7.210;2022-10-16T07:16:07;2.80;;;2.50;;
6983;SDS011;3532;51.118;7.210;2022-10-16T07:18:36;5.10;;;2.63;;
6983;SDS011;3532;51.118;7.210;2022-10-16T07:21:07;2.60;;;2.40;;
6983;SDS011;3532;51.118;7.210;2022-10-16T07:23:37;3.40;;;2.17;;
6983;SDS011;3532;51.118;7.210;2022-10-16T07:26:03;3.70;;;2.60;;
6983;SDS011;3532;51.118;7.210;2022-10-16T07:28:29;4.20;;;2.80;;
6983;SDS011;3532;51.118;7.210;2022-10-16T07:30:54;3.07;;;2.43;;
6983;SDS011;3532;51.118;7.210;2022-10-16T07:33:20;2.53;;;2.33;;
6983;SDS011;3532;51.118;7.210;2022-10-16T07:35:52;3.43;;;2.50;;
6983;SDS011;3532;51.118;7.210;2022-10-16T07:38:18;2.93;;;2.60;;
6983;SDS011;3532;51.118;7.210;2022-10-16T07:40:43;3.10;;;2.53;;
6983;SDS011;3532;51.118;7.210;2022-10-16T07:43:09;7.20;;;2.93;;
6983;SDS011;3532;51.118;7.210;2022-10-16T07:45:34;2.47;;;2.20;;
6983;SDS011;3532;51.118;7.210;2022-10-16T07:48:00;2.60;;;2.40;;
6983;SDS011;3532;51.118;7.210;2022-10-16T07:50:25;2.87;;;2.37;;
6983;SDS011;3532;51.118;7.210;2022-10-16T07:52:50;2.90;;;2.40;;
6983;SDS011;3532;51.118;7.210;2022-10-16T07:55:15;2.93;;;2.10;;
6983;SDS011;3532;51.118;7.210;2022-10-16T07:57:41;2.50;;;2.07;;
6983;SDS011;3532;51.118;7.210;2022-10-16T08:00:06;1.87;;;1.77;;
6983;SDS011;3532;51.118;7.210;2022-10-16T08:02:32;2.57;;;2.30;;
6983;SDS011;3532;51.118;7.210;2022-10-16T08:04:57;4.43;;;2.13;;
6983;SDS011;3532;51.118;7.210;2022-10-16T08:07:23;2.30;;;2.10;;
6983;SDS011;3532;51.118;7.210;2022-10-16T08:09:49;3.33;;;2.40;;
6983;SDS011;3532;51.118;7.210;2022-10-16T08:12:16;2.50;;;2.30;;
6983;SDS011;3532;51.118;7.210;2022-10-16T08:14:41;4.30;;;2.00;;
6983;SDS011;3532;51.118;7.210;2022-10-16T08:17:07;2.20;;;2.00;;
6983;SDS011;3532;51.118;7.210;2022-10-16T08:19:32;4.87;;;2.57;;
6983;SDS011;3532;51.118;7.210;2022-10-16T08:21:59;3.47;;;2.10;;
6983;SDS011;3532;51.118;7.210;2022-10-16T08:24:24;3.30;;;2.23;;
6983;SDS011;3532;51.118;7.210;2022-10-16T08:26:50;2.47;;;2.27;;
6983;SDS011;3532;51.118;7.210;2022-10-16T08:29:18;2.37;;;1.90;;
6983;SDS011;3532;51.118;7.210;2022-10-16T08:31:43;3.93;;;2.00;;
6983;SDS011;3532;51.118;7.210;2022-10-16T08:34:09;4.03;;;2.40;;
6983;SDS011;3532;51.118;7.210;2022-10-16T08:36:34;3.10;;;2.10;;
6983;SDS011;3532;51.118;7.210;2022-10-16T08:38:59;2.87;;;2.10;;
6983;SDS011;3532;51.118;7.210;2022-10-16T08:46:48;3.63;;;1.90;;
6983;SDS011;3532;51.118;7.210;2022-10-16T08:49:16;6.30;;;2.10;;
6983;SDS011;3532;51.118;7.210;2022-10-16T08:51:42;2.00;;;1.80;;
6983;SDS011;3532;51.118;7.210;2022-10-16T08:56:43;5.90;;;2.27;;
6983;SDS011;3532;51.118;7.210;2022-10-16T08:59:12;2.83;;;2.03;;
6983;SDS011;3532;51.118;7.210;2022-10-16T09:01:40;3.43;;;2.23;;
6983;SDS011;3532;51.118;7.210;2022-10-16T09:12:33;2.10;;;1.90;;
6983;SDS011;3532;51.118;7.210;2022-10-16T09:20:35;5.47;;;2.00;;
6983;SDS011;3532;51.118;7.210;2022-10-16T09:23:19;4.90;;;1.80;;
6983;SDS011;3532;51.118;7.210;2022-10-16T09:25:50;2.07;;;1.87;;
6983;SDS011;3532;51.118;7.210;2022-10-16T09:28:16;2.40;;;2.03;;
6983;SDS011;3532;51.118;7.210;2022-10-16T09:30:42;3.10;;;2.00;;
6983;SDS011;3532;51.118;7.210;2022-10-16T09:33:09;3.70;;;1.97;;
6983;SDS011;3532;51.118;7.210;2022-10-16T09:35:51;5.60;;;1.70;;
6983;SDS011;3532;51.118;7.210;2022-10-16T09:40:51;3.27;;;2.43;;
6983;SDS011;3532;51.118;7.210;2022-10-16T09:45:53;3.10;;;2.13;;
6983;SDS011;3532;51.118;7.210;2022-10-16T09:48:20;2.70;;;1.50;;
6983;SDS011;3532;51.118;7.210;2022-10-16T09:50:55;2.03;;;1.60;;
6983;SDS011;3532;51.118;7.210;2022-10-16T09:53:21;1.80;;;1.70;;
6983;SDS011;3532;51.118;7.210;2022-10-16T09:55:51;3.93;;;1.70;;
6983;SDS011;3532;51.118;7.210;2022-10-16T09:58:17;1.80;;;1.70;;
6983;SDS011;3532;51.118;7.210;2022-10-16T10:00:49;2.40;;;1.80;;
6983;SDS011;3532;51.118;7.210;2022-10-16T10:03:33;2.47;;;2.10;;
6983;SDS011;3532;51.118;7.210;2022-10-16T10:06:03;2.27;;;1.83;;
6983;SDS011;3532;51.118;7.210;2022-10-16T10:08:32;2.60;;;1.80;;
6983;SDS011;3532;51.118;7.210;2022-10-16T10:10:57;1.90;;;1.67;;
6983;SDS011;3532;51.118;7.210;2022-10-16T10:13:24;2.70;;;1.70;;
6983;SDS011;3532;51.118;7.210;2022-10-16T10:15:49;1.73;;;1.60;;
6983;SDS011;3532;51.118;7.210;2022-10-16T10:18:18;2.07;;;1.87;;
6983;SDS011;3532;51.118;7.210;2022-10-16T10:20:46;2.07;;;1.70;;
6983;SDS011;3532;51.118;7.210;2022-10-16T10:23:23;1.77;;;1.67;;
6983;SDS011;3532;51.118;7.210;2022-10-16T10:25:53;1.70;;;1.60;;
6983;SDS011;3532;51.118;7.210;2022-10-16T10:28:42;2.83;;;2.07;;
6983;SDS011;3532;51.118;7.210;2022-10-16T10:36:40;1.67;;;1.57;;
6983;SDS011;3532;51.118;7.210;2022-10-16T10:41:49;2.30;;;1.50;;
6983;SDS011;3532;51.118;7.210;2022-10-16T10:55:54;2.40;;;1.53;;
6983;SDS011;3532;51.118;7.210;2022-10-16T11:01:15;2.37;;;1.37;;
6983;SDS011;3532;51.118;7.210;2022-10-16T11:04:01;2.67;;;1.63;;
6983;SDS011;3532;51.118;7.210;2022-10-16T11:06:55;1.80;;;1.40;;
6983;SDS011;3532;51.118;7.210;2022-10-16T11:12:22;1.40;;;1.30;;
6983;SDS011;3532;51.118;7.210;2022-10-16T11:14:56;1.90;;;1.70;;
6983;SDS011;3532;51.118;7.210;2022-10-16T11:17:33;1.53;;;1.43;;
6983;SDS011;3532;51.118;7.210;2022-10-16T11:22:50;2.57;;;1.40;;
6983;SDS011;3532;51.118;7.210;2022-10-16T11:25:29;2.43;;;1.63;;
6983;SDS011;3532;51.118;7.210;2022-10-16T11:30:23;2.20;;;1.60;;
6983;SDS011;3532;51.118;7.210;2022-10-16T11:32:52;2.70;;;1.80;;
6983;SDS011;3532;51.118;7.210;2022-10-16T11:35:24;3.67;;;1.50;;
6983;SDS011;3532;51.118;7.210;2022-10-16T11:37:55;2.13;;;1.50;;
6983;SDS011;3532;51.118;7.210;2022-10-16T11:40:54;1.83;;;1.50;;
6983;SDS011;3532;51.118;7.210;2022-10-16T11:45:51;1.70;;;1.60;;
6983;SDS011;3532;51.118;7.210;2022-10-16T11:48:20;1.63;;;1.40;;
6983;SDS011;3532;51.118;7.210;2022-10-16T11:50:53;3.30;;;1.57;;
6983;SDS011;3532;51.118;7.210;2022-10-16T11:53:23;2.47;;;1.60;;
6983;SDS011;3532;51.118;7.210;2022-10-16T11:56:08;2.57;;;1.50;;
6983;SDS011;3532;51.118;7.210;2022-10-16T12:03:35;2.70;;;1.80;;
6983;SDS011;3532;51.118;7.210;2022-10-16T12:08:30;3.73;;;1.70;;
6983;SDS011;3532;51.118;7.210;2022-10-16T12:11:19;2.43;;;1.70;;
6983;SDS011;3532;51.118;7.210;2022-10-16T12:13:51;4.77;;;1.70;;
6983;SDS011;3532;51.118;7.210;2022-10-16T12:18:43;1.97;;;1.40;;
6983;SDS011;3532;51.118;7.210;2022-10-16T12:21:10;3.13;;;1.50;;
6983;SDS011;3532;51.118;7.210;2022-10-16T12:23:51;1.97;;;1.43;;
6983;SDS011;3532;51.118;7.210;2022-10-16T12:26:28;3.83;;;1.53;;
6983;SDS011;3532;51.118;7.210;2022-10-16T12:28:55;3.60;;;1.80;;
6983;SDS011;3532;51.118;7.210;2022-10-16T12:31:21;2.93;;;1.70;;
6983;SDS011;3532;51.118;7.210;2022-10-16T12:33:59;2.53;;;1.60;;
6983;SDS011;3532;51.118;7.210;2022-10-16T12:36:33;1.40;;;1.30;;
6983;SDS011;3532;51.118;7.210;2022-10-16T12:38:59;4.83;;;1.90;;
6983;SDS011;3532;51.118;7.210;2022-10-16T12:41:32;1.60;;;1.47;;
6983;SDS011;3532;51.118;7.210;2022-10-16T12:43:59;1.73;;;1.40;;
6983;SDS011;3532;51.118;7.210;2022-10-16T12:46:34;1.73;;;1.43;;
6983;SDS011;3532;51.118;7.210;2022-10-16T12:51:36;2.40;;;1.40;;
6983;SDS011;3532;51.118;7.210;2022-10-16T12:59:23;1.60;;;1.50;;
6983;SDS011;3532;51.118;7.210;2022-10-16T13:02:14;1.63;;;1.30;;
6983;SDS011;3532;51.118;7.210;2022-10-16T13:07:44;3.87;;;1.33;;
6983;SDS011;3532;51.118;7.210;2022-10-16T13:10:27;4.40;;;1.60;;
6983;SDS011;3532;51.118;7.210;2022-10-16T13:13:02;2.60;;;1.40;;
6983;SDS011;3532;51.118;7.210;2022-10-16T13:18:29;1.87;;;1.67;;
6983;SDS011;3532;51.118;7.210;2022-10-16T13:21:18;4.77;;;1.60;;
6983;SDS011;3532;51.118;7.210;2022-10-16T13:26:44;1.60;;;1.40;;
6983;SDS011;3532;51.118;7.210;2022-10-16T13:29:14;2.77;;;1.30;;
6983;SDS011;3532;51.118;7.210;2022-10-16T13:31:40;1.37;;;1.20;;
6983;SDS011;3532;51.118;7.210;2022-10-16T13:34:11;1.50;;;1.27;;
6983;SDS011;3532;51.118;7.210;2022-10-16T13:36:44;3.23;;;1.10;;
6983;SDS011;3532;51.118;7.210;2022-10-16T13:44:44;2.53;;;1.47;;
6983;SDS011;3532;51.118;7.210;2022-10-16T13:47:21;2.57;;;1.30;;
6983;SDS011;3532;51.118;7.210;2022-10-16T13:49:58;2.43;;;1.40;;
6983;SDS011;3532;51.118;7.210;2022-10-16T13:52:28;2.77;;;1.40;;
6983;SDS011;3532;51.118;7.210;2022-10-16T13:54:53;4.10;;;1.43;;
6983;SDS011;3532;51.118;7.210;2022-10-16T13:57:18;2.37;;;1.43;;
6983;SDS011;3532;51.118;7.210;2022-10-16T13:59:47;2.40;;;1.50;;
6983;SDS011;3532;51.118;7.210;2022-10-16T14:02:20;2.27;;;1.30;;
6983;SDS011;3532;51.118;7.210;2022-10-16T14:04:47;1.70;;;1.20;;
6983;SDS011;3532;51.118;7.210;2022-10-16T14:07:13;1.77;;;1.67;;
6983;SDS011;3532;51.118;7.210;2022-10-16T14:09:40;6.10;;;1.57;;
6983;SDS011;3532;51.118;7.210;2022-10-16T14:12:09;1.73;;;1.40;;
6983;SDS011;3532;51.118;7.210;2022-10-16T14:14:46;3.17;;;1.53;;
6983;SDS011;3532;51.118;7.210;2022-10-16T14:17:19;2.83;;;1.60;;
6983;SDS011;3532;51.118;7.210;2022-10-16T14:19:50;1.57;;;1.37;;
6983;SDS011;3532;51.118;7.210;2022-10-16T14:25:16;1.83;;;1.43;;
6983;SDS011;3532;51.118;7.210;2022-10-16T14:27:45;1.40;;;1.30;;
6983;SDS011;3532;51.118;7.210;2022-10-16T14:30:32;3.17;;;1.63;;
6983;SDS011;3532;51.118;7.210;2022-10-16T14:33:01;3.83;;;1.50;;
6983;SDS011;3532;51.118;7.210;2022-10-16T14:35:35;1.77;;;1.50;;
6983;SDS011;3532;51.118;7.210;2022-10-16T14:38:02;1.50;;;1.30;;
6983;SDS011;3532;51.118;7.210;2022-10-16T14:40:33;2.60;;;1.60;;
6983;SDS011;3532;51.118;7.210;2022-10-16T14:43:00;2.37;;;1.33;;
6983;SDS011;3532;51.118;7.210;2022-10-16T14:45:30;2.20;;;1.60;;
6983;SDS011;3532;51.118;7.210;2022-10-16T14:47:58;1.97;;;1.50;;
6983;SDS011;3532;51.118;7.210;2022-10-16T14:50:25;2.53;;;1.40;;
6983;SDS011;3532;51.118;7.210;2022-10-16T14:52:51;1.73;;;1.57;;
6983;SDS011;3532;51.118;7.210;2022-10-16T14:55:16;4.37;;;1.67;;
6983;SDS011;3532;51.118;7.210;2022-10-16T14:57:42;1.70;;;1.50;;
6983;SDS011;3532;51.118;7.210;2022-10-16T15:00:19;3.27;;;1.70;;
6983;SDS011;3532;51.118;7.210;2022-10-16T15:02:46;4.20;;;1.40;;
6983;SDS011;3532;51.118;7.210;2022-10-16T15:05:22;2.70;;;1.67;;
6983;SDS011;3532;51.118;7.210;2022-10-16T15:07:49;2.17;;;1.40;;
6983;SDS011;3532;51.118;7.210;2022-10-16T15:10:18;4.50;;;1.67;;
6983;SDS011;3532;51.118;7.210;2022-10-16T15:12:45;4.07;;;1.60;;
6983;SDS011;3532;51.118;7.210;2022-10-16T15:17:48;3.70;;;1.47;;
6983;SDS011;3532;51.118;7.210;2022-10-16T15:20:17;2.87;;;1.60;;
6983;SDS011;3532;51.118;7.210;2022-10-16T15:22:42;1.40;;;1.30;;
6983;SDS011;3532;51.118;7.210;2022-10-16T15:25:10;1.60;;;1.50;;
6983;SDS011;3532;51.118;7.210;2022-10-16T15:28:01;2.20;;;1.50;;
6983;SDS011;3532;51.118;7.210;2022-10-16T15:30:27;5.03;;;1.40;;
6983;SDS011;3532;51.118;7.210;2022-10-16T15:32:52;3.57;;;1.40;;
6983;SDS011;3532;51.118;7.210;2022-10-16T15:35:18;1.50;;;1.40;;
6983;SDS011;3532;51.118;7.210;2022-10-16T15:37:43;3.37;;;1.60;;
6983;SDS011;3532;51.118;7.210;2022-10-16T15:40:09;1.93;;;1.20;;
6983;SDS011;3532;51.118;7.210;2022-10-16T15:42:35;4.20;;;1.57;;
6983;SDS011;3532;51.118;7.210;2022-10-16T15:45:00;2.17;;;1.60;;
6983;SDS011;3532;51.118;7.210;2022-10-16T15:47:26;6.17;;;1.40;;
6983;SDS011;3532;51.118;7.210;2022-10-16T15:49:51;1.70;;;1.60;;
6983;SDS011;3532;51.118;7.210;2022-10-16T15:52:16;2.43;;;1.67;;
6983;SDS011;3532;51.118;7.210;2022-10-16T15:54:42;2.73;;;1.50;;
6983;SDS011;3532;51.118;7.210;2022-10-16T15:57:07;1.50;;;1.40;;
6983;SDS011;3532;51.118;7.210;2022-10-16T15:59:32;5.80;;;1.43;;
6983;SDS011;3532;51.118;7.210;2022-10-16T16:01:58;3.83;;;1.70;;
6983;SDS011;3532;51.118;7.210;2022-10-16T16:04:23;2.70;;;1.90;;
6983;SDS011;3532;51.118;7.210;2022-10-16T16:06:48;5.00;;;1.47;;
6983;SDS011;3532;51.118;7.210;2022-10-16T16:09:13;3.03;;;1.83;;
6983;SDS011;3532;51.118;7.210;2022-10-16T16:11:39;2.43;;;1.70;;
6983;SDS011;3532;51.118;7.210;2022-10-16T16:14:05;2.47;;;1.67;;
6983;SDS011;3532;51.118;7.210;2022-10-16T16:16:31;1.53;;;1.43;;
6983;SDS011;3532;51.118;7.210;2022-10-16T16:19:01;2.63;;;1.40;;
6983;SDS011;3532;51.118;7.210;2022-10-16T16:21:27;4.50;;;1.83;;
6983;SDS011;3532;51.118;7.210;2022-10-16T16:23:52;3.40;;;1.83;;
6983;SDS011;3532;51.118;7.210;2022-10-16T16:26:25;2.60;;;1.63;;
6983;SDS011;3532;51.118;7.210;2022-10-16T16:28:57;2.00;;;1.80;;
6983;SDS011;3532;51.118;7.210;2022-10-16T16:31:26;2.50;;;1.60;;
6983;SDS011;3532;51.118;7.210;2022-10-16T16:33:52;3.47;;;1.70;;
6983;SDS011;3532;51.118;7.210;2022-10-16T16:36:18;9.50;;;1.73;;
6983;SDS011;3532;51.118;7.210;2022-10-16T16:38:44;1.60;;;1.50;;
6983;SDS011;3532;51.118;7.210;2022-10-16T16:41:14;2.70;;;1.93;;
6983;SDS011;3532;51.118;7.210;2022-10-16T16:43:40;1.40;;;1.20;;
6983;SDS011;3532;51.118;7.210;2022-10-16T16:46:05;3.50;;;1.80;;
6983;SDS011;3532;51.118;7.210;2022-10-16T16:48:31;3.20;;;1.77;;
6983;SDS011;3532;51.118;7.210;2022-10-16T16:50:58;2.40;;;1.67;;
6983;SDS011;3532;51.118;7.210;2022-10-16T16:53:27;2.00;;;1.90;;
6983;SDS011;3532;51.118;7.210;2022-10-16T16:55:53;4.00;;;2.00;;
6983;SDS011;3532;51.118;7.210;2022-10-16T16:58:18;1.90;;;1.80;;
6983;SDS011;3532;51.118;7.210;2022-10-16T17:00:46;3.47;;;1.50;;
6983;SDS011;3532;51.118;7.210;2022-10-16T17:03:12;3.10;;;1.70;;
6983;SDS011;3532;51.118;7.210;2022-10-16T17:05:37;3.23;;;1.70;;
6983;SDS011;3532;51.118;7.210;2022-10-16T17:08:05;7.47;;;2.00;;
6983;SDS011;3532;51.118;7.210;2022-10-16T17:10:31;3.83;;;2.00;;
6983;SDS011;3532;51.118;7.210;2022-10-16T17:12:57;2.03;;;1.90;;
6983;SDS011;3532;51.118;7.210;2022-10-16T17:15:22;4.73;;;2.00;;